Time;durP1;ratioP1;P1;durP2;ratioP2;P2;SDS_P1;SDS_P2;PMS_P1;PMS_P2;Temp;Humidity;BMP_temperature;BMP_pressure;BME280_temperature;BME280_humidity;BME280_pressure;Samples;Min_cycle;Max_cycle;Signal;HPM_P1;HPM_P2
2023/09/09 00:00:07;;;;;;;0.20;0.20;;;;;;;18.69;100.00;99150.41;5113109;28;20700;-56
2023/09/09 00:02:57;;;;;;;0.20;0.20;;;;;;;18.55;100.00;99157.97;5113109;28;20206;-56
2023/09/09 00:05:44;;;;;;;0.10;0.10;;;;;;;18.42;100.00;99159.28;5111533;28;20866;-56
2023/09/09 00:08:33;;;;;;;0.10;0.10;;;;;;;18.26;100.00;99160.75;5113460;28;20193;-55
2023/09/09 00:11:19;;;;;;;0.10;0.10;;;;;;;18.41;100.00;99155.75;5113398;28;20201;-56
2023/09/09 00:14:06;;;;;;;0.20;0.20;;;;;;;18.09;100.00;99158.84;5113156;28;20190;-56
2023/09/09 00:16:53;;;;;;;0.10;0.10;;;;;;;18.02;100.00;99155.03;5113307;28;20236;-56
2023/09/09 00:19:40;;;;;;;0.10;0.10;;;;;;;17.99;100.00;99155.34;5113021;28;20675;-56
2023/09/09 00:22:27;;;;;;;0.10;0.10;;;;;;;17.88;100.00;99158.19;5113043;28;20251;-56
2023/09/09 00:25:15;;;;;;;0.10;0.10;;;;;;;17.84;100.00;99156.78;5113238;28;20260;-56
2023/09/09 00:28:02;;;;;;;0.10;0.10;;;;;;;17.72;100.00;99156.09;5113098;28;20190;-55
2023/09/09 00:30:49;;;;;;;0.10;0.10;;;;;;;17.65;100.00;99150.44;5112891;28;20256;-55
2023/09/09 00:33:36;;;;;;;0.10;0.10;;;;;;;17.46;100.00;99166.53;5113101;28;20198;-56
2023/09/09 00:36:23;;;;;;;0.10;0.10;;;;;;;17.46;100.00;99166.53;5111774;28;20197;-56
2023/09/09 00:39:10;;;;;;;0.10;0.10;;;;;;;17.24;100.00;99158.78;5112762;28;20286;-55
2023/09/09 00:41:59;;;;;;;0.20;0.20;;;;;;;17.39;100.00;99155.56;5112840;28;20198;-55
2023/09/09 00:44:45;;;;;;;0.10;0.10;;;;;;;17.33;100.00;99155.25;5115999;28;20190;-56
2023/09/09 00:47:33;;;;;;;0.10;0.10;;;;;;;17.47;100.00;99152.16;5116797;28;20193;-55
2023/09/09 00:50:21;;;;;;;0.10;0.10;;;;;;;17.51;100.00;99156.25;5115568;28;20190;-55
2023/09/09 00:53:08;;;;;;;0.10;0.10;;;;;;;17.56;100.00;99158.47;5116867;28;20186;-55
2023/09/09 00:55:56;;;;;;;0.20;0.20;;;;;;;17.66;100.00;99149.47;5115606;28;20308;-56
2023/09/09 00:58:44;;;;;;;0.20;0.20;;;;;;;17.65;100.00;99147.75;5116768;28;20263;-55
2023/09/09 01:01:32;;;;;;;0.13;0.13;;;;;;;17.48;100.00;99148.50;5116751;28;20195;-56
2023/09/09 01:04:20;;;;;;;0.17;0.17;;;;;;;17.43;100.00;99148.06;5115400;28;20228;-56
2023/09/09 01:07:07;;;;;;;0.10;0.10;;;;;;;17.33;100.00;99149.91;5114180;28;20232;-56
2023/09/09 01:09:54;;;;;;;0.17;0.17;;;;;;;17.15;100.00;99158.63;5115527;28;20316;-55
2023/09/09 01:12:42;;;;;;;0.10;0.10;;;;;;;17.12;100.00;99158.06;5116411;28;20257;-56
2023/09/09 01:15:31;;;;;;;0.10;0.10;;;;;;;17.03;100.00;99151.72;5116407;28;20202;-55
2023/09/09 01:18:19;;;;;;;0.17;0.17;;;;;;;17.03;100.00;99158.91;5116271;28;20308;-55
2023/09/09 01:21:09;;;;;;;0.20;0.20;;;;;;;17.13;100.00;99159.75;5114616;28;20233;-55
2023/09/09 01:23:57;;;;;;;0.20;0.20;;;;;;;17.21;100.00;99169.78;5116202;28;20202;-56
2023/09/09 01:26:45;;;;;;;0.10;0.10;;;;;;;17.12;100.00;99166.94;5116196;28;20194;-56
2023/09/09 01:29:33;;;;;;;0.10;0.10;;;;;;;16.90;100.00;99167.22;5116200;28;20673;-56
2023/09/09 01:32:20;;;;;;;0.10;0.10;;;;;;;17.24;100.00;99166.81;5116147;28;20202;-56
2023/09/09 01:35:08;;;;;;;0.10;0.10;;;;;;;17.03;100.00;99162.44;5114688;28;20205;-56
2023/09/09 01:37:55;;;;;;;0.10;0.10;;;;;;;17.24;100.00;99164.97;5114971;28;20261;-55
2023/09/09 01:40:43;;;;;;;0.10;0.10;;;;;;;17.39;100.00;99160.91;5114690;28;20217;-56
2023/09/09 01:43:30;;;;;;;0.17;0.17;;;;;;;17.33;100.00;99163.28;5115901;28;20195;-56
2023/09/09 01:46:17;;;;;;;0.10;0.10;;;;;;;17.20;100.00;99160.06;5115820;28;20255;-56
2023/09/09 01:49:04;;;;;;;0.10;0.10;;;;;;;17.22;100.00;99161.59;5115670;28;20197;-56
2023/09/09 01:51:51;;;;;;;0.20;0.20;;;;;;;17.34;100.00;99157.78;5113401;28;20202;-56
2023/09/09 01:54:38;;;;;;;0.10;0.10;;;;;;;17.25;100.00;99155.97;5114545;28;20210;-55
2023/09/09 01:57:26;;;;;;;0.10;0.10;;;;;;;17.05;100.00;99154.25;5115583;28;20194;-55
2023/09/09 02:00:14;;;;;;;0.10;0.10;;;;;;;17.18;100.00;99146.81;5114419;28;20218;-55
2023/09/09 02:03:02;;;;;;;0.10;0.10;;;;;;;17.26;100.00;99152.28;5114510;28;20193;-55
2023/09/09 02:05:53;;;;;;;0.10;0.10;;;;;;;17.21;100.00;99157.25;5113768;28;20299;-55
2023/09/09 02:08:40;;;;;;;0.10;0.10;;;;;;;16.97;100.00;99146.06;5114309;28;20743;-56
2023/09/09 02:11:27;;;;;;;0.10;0.10;;;;;;;16.90;100.00;99163.69;5115548;28;20190;-56
2023/09/09 02:14:15;;;;;;;0.10;0.10;;;;;;;16.84;100.00;99163.25;5115243;28;20197;-56
2023/09/09 02:17:03;;;;;;;0.10;0.10;;;;;;;16.84;100.00;99157.06;5114057;28;20726;-56
2023/09/09 02:19:55;;;;;;;0.10;0.10;;;;;;;16.90;100.00;99161.84;5113746;28;20210;-56
2023/09/09 02:22:42;;;;;;;0.20;0.20;;;;;;;16.87;100.00;99162.13;5115186;28;20190;-55
2023/09/09 02:25:29;;;;;;;0.10;0.10;;;;;;;16.91;100.00;99152.00;5114932;28;20193;-56
2023/09/09 02:28:16;;;;;;;0.10;0.10;;;;;;;16.94;100.00;99149.03;5115085;28;20223;-56
2023/09/09 02:31:04;;;;;;;0.10;0.10;;;;;;;16.90;100.00;99156.50;5114968;28;20664;-56
2023/09/09 02:33:51;;;;;;;0.20;0.20;;;;;;;16.81;100.00;99150.16;5113699;28;20203;-56
2023/09/09 02:36:38;;;;;;;0.10;0.10;;;;;;;16.78;100.00;99152.25;5112565;28;20308;-56
2023/09/09 02:39:25;;;;;;;0.10;0.10;;;;;;;16.50;100.00;99153.81;5114813;28;20198;-56
2023/09/09 02:42:15;;;;;;;0.10;0.10;;;;;;;16.31;100.00;99149.28;5114348;28;20190;-55
2023/09/09 02:45:02;;;;;;;0.10;0.10;;;;;;;16.29;100.00;99148.53;5114640;28;20722;-55
2023/09/09 02:47:50;;;;;;;0.10;0.10;;;;;;;16.44;100.00;99151.69;5113528;28;20607;-56
2023/09/09 02:50:37;;;;;;;0.20;0.20;;;;;;;16.50;100.00;99152.03;5113031;28;20206;-56
2023/09/09 02:53:24;;;;;;;0.10;0.10;;;;;;;16.54;100.00;99156.09;5113467;28;20252;-56
2023/09/09 02:56:12;;;;;;;0.20;0.20;;;;;;;16.52;100.00;99154.56;5114546;28;20672;-56
2023/09/09 02:58:58;;;;;;;0.10;0.10;;;;;;;16.49;100.00;99162.81;5113177;28;20198;-55
2023/09/09 03:01:45;;;;;;;0.10;0.10;;;;;;;-97.76;100.00;83637.28;5113092;28;20249;-56
2023/09/09 03:04:34;;;;;;;0.10;0.10;;;;;;;16.34;100.00;99158.84;5113514;28;20296;-56
2023/09/09 03:07:21;;;;;;;0.10;0.10;;;;;;;16.35;100.00;99158.69;5113197;28;20561;-56
2023/09/09 03:10:09;;;;;;;0.20;0.20;;;;;;;16.44;100.00;99162.41;5113210;28;20209;-56
2023/09/09 03:12:57;;;;;;;0.10;0.10;;;;;;;16.30;100.00;99152.91;5113132;28;20248;-55
2023/09/09 03:15:44;;;;;;;0.10;0.10;;;;;;;16.33;100.00;99158.00;5112924;28;20202;-55
2023/09/09 03:18:31;;;;;;;0.20;0.20;;;;;;;16.12;100.00;99159.88;5113019;28;20193;-56
2023/09/09 03:21:19;;;;;;;0.10;0.10;;;;;;;16.18;100.00;99159.31;5111427;28;20222;-55
2023/09/09 03:24:07;;;;;;;0.10;0.10;;;;;;;16.24;100.00;99158.81;5113818;28;20203;-55
2023/09/09 03:26:54;;;;;;;0.20;0.20;;;;;;;16.16;100.00;99150.59;5112874;28;20265;-55
2023/09/09 03:29:40;;;;;;;0.10;0.10;;;;;;;16.20;100.00;99155.53;5113820;28;20190;-56
2023/09/09 03:32:27;;;;;;;0.10;0.10;;;;;;;16.00;100.00;99165.28;5112650;28;20190;-56
2023/09/09 03:35:14;;;;;;;0.10;0.10;;;;;;;15.95;100.00;99162.19;5112363;28;20362;-55
2023/09/09 03:38:03;;;;;;;0.17;0.17;;;;;;;15.93;100.00;99166.81;5113694;28;20264;-56
2023/09/09 03:40:50;;;;;;;0.20;0.20;;;;;;;15.96;100.00;99171.03;5112565;28;20287;-56
2023/09/09 03:43:38;;;;;;;0.10;0.10;;;;;;;16.00;100.00;99165.28;5113538;28;20204;-55
2023/09/09 03:46:26;;;;;;;0.10;0.10;;;;;;;15.94;100.00;99167.66;5112581;28;20194;-55
2023/09/09 03:49:15;;;;;;;0.10;0.10;;;;;;;15.78;100.00;99165.44;5112660;28;20260;-55
2023/09/09 03:52:03;;;;;;;0.10;0.10;;;;;;;15.73;100.00;99171.19;5111302;28;20244;-55
2023/09/09 03:54:51;;;;;;;0.10;0.10;;;;;;;15.80;100.00;99168.81;5112500;28;20400;-55
2023/09/09 03:57:38;;;;;;;0.10;0.10;;;;;;;15.67;100.00;99185.03;5112574;28;20273;-56
2023/09/09 04:00:25;;;;;;;0.10;0.10;;;;;;;15.74;100.00;99174.69;5112299;28;20194;-55
2023/09/09 04:03:12;;;;;;;0.10;0.10;;;;;;;15.78;100.00;99173.44;5112445;28;20197;-55
2023/09/09 04:06:00;;;;;;;0.20;0.20;;;;;;;188.97;100.00;99173.44;5110733;28;20728;-56
2023/09/09 04:08:49;;;;;;;0.10;0.10;;;;;;;15.63;100.00;99186.28;5113299;28;20251;-56
2023/09/09 04:11:38;;;;;;;0.10;0.10;;;;;;;15.66;100.00;99194.03;5113314;28;20190;-56
2023/09/09 04:14:25;;;;;;;0.10;0.10;;;;;;;15.82;100.00;99182.88;5113295;28;20185;-55
2023/09/09 04:17:12;;;;;;;0.10;0.10;;;;;;;15.74;100.00;99177.38;5114470;28;20190;-55
2023/09/09 04:19:59;;;;;;;0.20;0.20;;;;;;;15.63;100.00;99180.97;5115198;28;20205;-56
2023/09/09 04:22:46;;;;;;;0.10;0.10;;;;;;;15.69;100.00;99179.56;5116086;28;20290;-55
2023/09/09 04:25:33;;;;;;;0.10;0.10;;;;;;;15.54;100.00;99184.38;5116318;28;20194;-56
2023/09/09 04:28:21;;;;;;;0.10;0.10;;;;;;;15.65;100.00;99176.31;5116430;28;20312;-56
2023/09/09 04:31:08;;;;;;;0.20;0.20;;;;;;;15.71;100.00;99180.28;5116376;28;20224;-55
2023/09/09 04:33:59;;;;;;;0.20;0.20;;;;;;;15.62;100.00;99175.72;5116205;28;20190;-55
2023/09/09 04:36:45;;;;;;;0.10;0.10;;;;;;;15.59;100.00;99173.28;5115752;28;20184;-55
2023/09/09 04:39:35;;;;;;;0.20;0.20;;;;;;;15.44;100.00;99165.59;5116120;28;20198;-55
2023/09/09 04:42:22;;;;;;;0.10;0.10;;;;;;;15.43;100.00;99171.03;5115876;28;20218;-55
2023/09/09 04:45:11;;;;;;;0.20;0.20;;;;;;;15.49;100.00;99177.72;5116043;28;20210;-55
2023/09/09 04:47:58;;;;;;;0.17;0.17;;;;;;;15.32;100.00;99185.28;5116924;28;20194;-56
2023/09/09 04:50:48;;;;;;;0.20;0.20;;;;;;;15.27;100.00;99192.84;5114653;28;20224;-55
2023/09/09 04:53:35;;;;;;;0.10;0.10;;;;;;;15.23;100.00;99190.53;5116560;28;20206;-55
2023/09/09 04:56:22;;;;;;;0.10;0.10;;;;;;;15.23;100.00;99190.53;5115783;28;20198;-55
2023/09/09 04:59:11;;;;;;;0.20;0.20;;;;;;;15.21;100.00;99192.50;5115880;28;20248;-55
2023/09/09 05:02:00;;;;;;;0.10;0.10;;;;;;;15.40;100.00;99196.19;5115323;28;20218;-56
2023/09/09 05:04:47;;;;;;;0.20;0.20;;;;;;;15.44;100.00;99191.41;5114643;28;20263;-56
2023/09/09 05:07:35;;;;;;;0.10;0.10;;;;;;;15.72;100.00;99198.00;5115447;28;20194;-56
2023/09/09 05:10:26;;;;;;;0.20;0.20;;;;;;;15.85;100.00;99182.63;5115327;28;20209;-56
2023/09/09 05:13:13;;;;;;;0.10;0.10;;;;;;;15.80;100.00;99182.19;5115225;28;20194;-56
2023/09/09 05:16:00;;;;;;;0.10;0.10;;;;;;;15.73;100.00;99176.53;5115381;28;20197;-55
2023/09/09 05:18:48;;;;;;;0.10;0.10;;;;;;;15.74;100.00;99178.22;5115150;28;20198;-56
2023/09/09 05:21:35;;;;;;;0.10;0.10;;;;;;;15.77;100.00;99187.78;5113809;28;20214;-56
2023/09/09 05:24:22;;;;;;;0.10;0.10;;;;;;;15.74;100.00;99191.56;5115240;28;20194;-55
2023/09/09 05:27:09;;;;;;;0.10;0.10;;;;;;;15.57;100.00;99192.09;5115013;28;20552;-55
2023/09/09 05:29:56;;;;;;;0.10;0.10;;;;;;;15.54;100.00;99191.50;5115171;28;20209;-55
2023/09/09 05:32:43;;;;;;;0.10;0.10;;;;;;;15.58;100.00;99199.13;5115115;28;20186;-55
2023/09/09 05:35:31;;;;;;;0.10;0.10;;;;;;;15.86;100.00;99204.84;5114596;28;20202;-56
2023/09/09 05:38:19;;;;;;;0.10;0.10;;;;;;;16.01;100.00;99200.84;5115400;28;20198;-55
2023/09/09 05:41:05;;;;;;;0.10;0.10;;;;;;;16.17;100.00;99206.59;5116083;28;20194;-56
2023/09/09 05:43:52;;;;;;;0.20;0.20;;;;;;;16.00;100.00;99202.69;5114863;28;20186;-55
2023/09/09 05:46:39;;;;;;;0.10;0.10;;;;;;;16.14;100.00;99206.00;5114902;28;20197;-56
2023/09/09 05:49:27;;;;;;;0.20;0.20;;;;;;;16.26;100.00;99205.78;5115828;28;20187;-55
2023/09/09 05:52:29;;;;;;;0.10;0.10;;;;;;;16.20;100.00;99197.44;5114711;28;20221;-56
2023/09/09 05:55:16;;;;;;;0.10;0.10;;;;;;;16.29;100.00;99202.00;5113690;28;20194;-56
2023/09/09 05:58:04;;;;;;;0.10;0.10;;;;;;;16.56;100.00;99196.06;5114523;28;20201;-56
2023/09/09 06:00:51;;;;;;;0.20;0.20;;;;;;;16.41;100.00;99200.09;5115500;28;20202;-56
2023/09/09 06:03:39;;;;;;;0.20;0.20;;;;;;;16.41;100.00;99202.78;5114317;28;20221;-56
2023/09/09 06:06:27;;;;;;;0.10;0.10;;;;;;;16.47;100.00;99195.03;5112651;28;20217;-56
2023/09/09 06:09:15;;;;;;;0.10;0.10;;;;;;;16.50;100.00;99197.47;5114349;28;20244;-56
2023/09/09 06:12:03;;;;;;;0.10;0.10;;;;;;;16.65;100.00;99199.75;5115092;28;20225;-56
2023/09/09 06:14:50;;;;;;;0.10;0.10;;;;;;;16.79;100.00;99197.59;5114137;28;20198;-56
2023/09/09 06:17:39;;;;;;;0.10;0.10;;;;;;;16.70;100.00;99198.41;5114232;28;20190;-56
2023/09/09 06:20:27;;;;;;;0.20;0.20;;;;;;;-144.59;100.00;74887.81;5112814;28;20332;-55
2023/09/09 06:23:15;;;;;;;0.10;0.10;;;;;;;16.89;100.00;99211.00;5113699;28;20234;-56
2023/09/09 06:26:04;;;;;;;0.10;0.10;;;;;;;16.98;100.00;99210.16;5114255;28;20284;-56
2023/09/09 06:28:50;;;;;;;0.20;0.20;;;;;;;16.87;100.00;99208.44;5113913;28;20201;-56
2023/09/09 06:31:38;;;;;;;0.20;0.20;;;;;;;17.07;100.00;99214.69;5113796;28;20190;-55
2023/09/09 06:34:27;;;;;;;0.10;0.10;;;;;;;17.21;100.00;99215.28;5114961;28;20194;-56
2023/09/09 06:37:14;;;;;;;0.20;0.20;;;;;;;17.35;100.00;99212.19;5113790;28;20190;-56
2023/09/09 06:40:00;;;;;;;0.10;0.10;;;;;;;17.33;100.00;99227.56;5113738;28;20198;-56
2023/09/09 06:42:49;;;;;;;0.10;0.10;;;;;;;17.49;100.00;99227.00;5114520;28;20210;-56
2023/09/09 06:45:36;;;;;;;0.10;0.10;;;;;;;17.77;100.00;99231.56;5113775;28;20198;-56
2023/09/09 06:48:23;;;;;;;0.10;0.10;;;;;;;17.91;100.00;99239.16;5114546;28;20282;-56
2023/09/09 06:51:10;;;;;;;0.10;0.10;;;;;;;18.04;100.00;99228.13;5113318;28;20189;-56
2023/09/09 06:53:57;;;;;;;0.10;0.10;;;;;;;18.28;100.00;99227.66;5114495;28;20196;-56
2023/09/09 06:56:44;;;;;;;0.10;0.10;;;;;;;18.43;100.00;99233.38;5114258;28;20186;-56
2023/09/09 06:59:32;;;;;;;0.10;0.10;;;;;;;18.66;100.00;99244.63;5114487;28;20194;-56
2023/09/09 07:02:19;;;;;;;0.10;0.10;;;;;;;-144.59;100.00;99244.63;5114285;28;20214;-56
2023/09/09 07:05:07;;;;;;;0.10;0.10;;;;;;;18.78;100.00;99232.72;5112606;28;20261;-56
2023/09/09 07:07:54;;;;;;;0.10;0.10;;;;;;;19.08;100.00;99235.09;5114240;28;20693;-56
2023/09/09 07:10:49;;;;;;;0.10;0.10;;;;;;;19.12;100.00;99239.19;5114153;28;20202;-56
2023/09/09 07:13:36;;;;;;;0.20;0.20;;;;;;;19.29;100.00;99237.50;5114036;28;20302;-56
2023/09/09 07:16:25;;;;;;;0.10;0.10;;;;;;;19.37;100.00;99240.28;5114153;28;20320;-56
2023/09/09 07:19:12;;;;;;;0.10;0.10;;;;;;;19.69;100.00;99234.44;5114045;28;20206;-56
2023/09/09 07:21:59;;;;;;;0.10;0.10;;;;;;;19.92;100.00;99240.16;5112229;28;20198;-56
2023/09/09 07:24:46;;;;;;;0.10;0.10;;;;;;;19.90;100.00;99241.31;5113882;28;20249;-56
2023/09/09 07:27:33;;;;;;;0.10;0.10;;;;;;;20.05;100.00;99237.06;5114117;28;20194;-56
2023/09/09 07:30:20;;;;;;;0.10;0.10;;;;;;;20.23;100.00;99231.63;5113873;28;20275;-57
2023/09/09 07:33:08;;;;;;;0.10;0.10;;;;;;;20.43;100.00;99237.69;5113900;28;20246;-56
2023/09/09 07:35:55;;;;;;;0.10;0.10;;;;;;;20.63;100.00;99227.53;5112312;28;20201;-56
2023/09/09 07:38:42;;;;;;;0.10;0.10;;;;;;;20.86;100.00;99220.59;5113748;28;20198;-56
2023/09/09 07:41:28;;;;;;;0.10;0.10;;;;;;;21.15;100.00;99233.66;5113409;28;20214;-56
2023/09/09 07:44:15;;;;;;;0.10;0.10;;;;;;;21.13;100.00;99225.72;5113342;28;20210;-56
2023/09/09 07:47:06;;;;;;;0.10;0.10;;;;;;;21.34;100.00;99230.69;5113586;28;20665;-56
2023/09/09 07:49:55;;;;;;;0.10;0.10;;;;;;;21.31;100.00;99225.63;5112160;28;20195;-56
2023/09/09 07:52:41;;;;;;;0.10;0.10;;;;;;;21.56;100.00;99220.28;5113411;28;20190;-56
2023/09/09 07:55:28;;;;;;;0.10;0.10;;;;;;;21.87;100.00;99217.75;5113405;28;20194;-56
2023/09/09 07:58:18;;;;;;;0.10;0.10;;;;;;;22.00;100.00;99210.88;5113479;28;20194;-57
2023/09/09 08:01:08;;;;;;;0.10;0.10;;;;;;;22.48;100.00;99209.09;5113332;28;20210;-57
2023/09/09 08:03:55;;;;;;;0.10;0.10;;;;;;;22.89;100.00;99210.88;5113149;28;20222;-56
2023/09/09 08:06:46;;;;;;;0.10;0.10;;;;;;;22.85;100.00;99221.16;5112028;28;20190;-56
2023/09/09 08:09:33;;;;;;;0.10;0.10;;;;;;;22.83;100.00;99218.59;5113360;28;20676;-56
2023/09/09 08:12:20;;;;;;;0.10;0.10;;;;;;;23.02;100.00;99216.53;5113383;28;20300;-56
2023/09/09 08:15:09;;;;;;;0.10;0.10;;;;;;;23.07;100.00;99222.25;5113322;28;20248;-57
2023/09/09 08:17:56;;;;;;;0.10;0.10;;;;;;;23.11;100.00;99219.00;5113297;28;20185;-57
2023/09/09 08:20:43;;;;;;;0.10;0.10;;;;;;;23.75;100.00;99224.22;5111951;28;20726;-57
2023/09/09 08:23:33;;;;;;;0.10;0.10;;;;;;;24.11;100.00;99227.09;5113191;28;20348;-56
2023/09/09 08:26:19;;;;;;;0.10;0.10;;;;;;;24.21;100.00;99226.84;5113041;28;20206;-57
2023/09/09 08:29:06;;;;;;;0.10;0.10;;;;;;;24.03;100.00;99221.78;5113293;28;20264;-56
2023/09/09 08:31:53;;;;;;;0.10;0.10;;;;;;;24.31;100.00;99219.31;5113033;28;20202;-57
2023/09/09 08:34:41;;;;;;;0.10;0.10;;;;;;;24.54;100.00;99217.41;5112577;28;20740;-56
2023/09/09 08:37:28;;;;;;;0.10;0.10;;;;;;;24.89;100.00;99219.53;5113294;28;20228;-57
2023/09/09 08:40:17;;;;;;;0.10;0.10;;;;;;;24.71;100.00;99223.47;5112741;28;20198;-56
2023/09/09 08:43:16;;;;;;;0.10;0.10;;;;;;;25.04;100.00;99212.25;5112758;28;20275;-56
2023/09/09 08:46:11;;;;;;;0.10;0.10;;;;;;;25.16;100.00;99210.72;5112993;28;20198;-56
2023/09/09 08:48:59;;;;;;;0.10;0.10;;;;;;;25.50;100.00;99212.78;5112851;28;20191;-56
2023/09/09 08:51:53;;;;;;;0.10;0.10;;;;;;;-144.59;100.00;99212.78;5111541;28;20198;-56
2023/09/09 08:54:40;;;;;;;0.10;0.10;;;;;;;25.90;100.00;99213.19;5112889;28;20186;-56
2023/09/09 08:57:31;;;;;;;0.10;0.10;;;;;;;26.04;100.00;99208.72;5112587;28;20260;-56
2023/09/09 09:00:19;;;;;;;0.00;0.00;;;;;;;26.05;100.00;99216.66;5112613;28;20744;-56
2023/09/09 09:03:06;;;;;;;0.10;0.10;;;;;;;26.13;100.00;99218.41;5113752;28;20708;-57
2023/09/09 09:05:54;;;;;;;0.10;0.10;;;;;;;25.79;100.00;99221.88;5113953;28;20225;-56
2023/09/09 09:08:42;;;;;;;0.03;0.03;;;;;;;25.90;99.56;99222.19;5116389;28;20194;-56
2023/09/09 09:11:29;;;;;;;0.00;0.00;;;;;;;26.18;99.46;99219.50;5116712;28;20193;-56
2023/09/09 09:14:17;;;;;;;0.00;0.00;;;;;;;26.36;99.13;99219.00;5116124;28;20680;-56
2023/09/09 09:17:05;;;;;;;0.10;0.10;;;;;;;26.18;97.48;99219.50;5116679;28;20228;-56
2023/09/09 09:19:53;;;;;;;0.10;0.10;;;;;;;26.49;96.11;99218.28;5114226;28;20252;-56
2023/09/09 09:22:40;;;;;;;0.10;0.10;;;;;;;26.82;90.65;99219.28;5114729;28;20194;-56
2023/09/09 09:25:27;;;;;;;0.10;0.10;;;;;;;27.17;81.15;99224.72;5115962;28;20236;-56
2023/09/09 09:28:16;;;;;;;0.00;0.00;;;;;;;27.59;78.29;99222.75;5116434;28;20267;-56
2023/09/09 09:31:20;;;;;;;0.10;0.10;;;;;;;27.32;77.58;99219.16;5115994;28;20194;-56
2023/09/09 09:34:09;;;;;;;0.10;0.10;;;;;;;27.51;78.58;99220.25;5115861;28;20213;-56
2023/09/09 09:36:56;;;;;;;0.10;0.10;;;;;;;27.51;81.86;99221.06;5114851;28;20198;-56
2023/09/09 09:39:44;;;;;;;0.10;0.10;;;;;;;27.25;79.10;99216.41;5115584;28;20194;-55
2023/09/09 09:42:35;;;;;;;0.05;0.05;;;;;;;27.28;82.15;99210.53;5115844;28;20676;-57
2023/09/09 09:45:27;;;;;;;0.00;0.00;;;;;;;28.00;72.64;99219.91;5114632;28;20270;-57
2023/09/09 09:48:25;;;;;;;0.10;0.10;;;;;;;27.19;72.10;99214.47;5114939;28;20672;-56
2023/09/09 09:51:13;;;;;;;0.00;0.00;;;;;;;27.76;74.41;99213.19;5114642;28;20688;-57
2023/09/09 09:53:59;;;;;;;0.10;0.10;;;;;;;27.92;71.55;99215.50;5115565;28;20198;-57
2023/09/09 09:56:46;;;;;;;0.10;0.10;;;;;;;28.66;69.48;99213.56;5115686;28;20235;-56
2023/09/09 09:59:35;;;;;;;0.10;0.10;;;;;;;29.07;65.06;99202.34;5115684;28;20216;-56
2023/09/09 10:02:23;;;;;;;0.10;0.10;;;;;;;29.54;64.62;99208.44;5115362;28;20263;-56
2023/09/09 10:05:14;;;;;;;0.10;0.10;;;;;;;29.60;65.81;99208.38;5113761;28;20229;-56
2023/09/09 10:08:12;;;;;;;0.08;0.08;;;;;;;29.79;65.52;99206.56;5115484;28;20201;-56
2023/09/09 10:11:04;;;;;;;0.10;0.10;;;;;;;29.86;63.81;99201.06;5115459;28;20273;-56
2023/09/09 10:14:04;;;;;;;0.10;0.10;;;;;;;30.34;61.04;99208.69;5115245;28;20260;-56
2023/09/09 10:16:53;;;;;;;0.00;0.00;;;;;;;31.12;58.87;99199.84;5115208;28;20397;-57
2023/09/09 10:19:40;;;;;;;0.00;0.00;;;;;;;32.27;52.87;99203.19;5114487;28;20198;-57
2023/09/09 10:22:30;;;;;;;0.00;0.00;;;;;;;34.10;45.52;99197.91;5115231;28;20251;-57
2023/09/09 10:25:18;;;;;;;0.00;0.00;;;;;;;35.81;41.65;99203.19;5114695;28;20214;-57
2023/09/09 10:28:06;;;;;;;0.00;0.00;;;;;;;37.63;37.54;99209.25;5115127;28;20227;-55
2023/09/09 10:30:54;;;;;;;0.00;0.00;;;;;;;38.52;35.14;99200.44;5115220;28;20760;-56
2023/09/09 10:33:45;;;;;;;0.00;0.00;;;;;;;40.04;33.53;99198.06;5114818;28;20197;-56
2023/09/09 10:36:36;;;;;;;0.00;0.00;;;;;;;39.92;33.76;99195.63;5113545;28;20305;-57
2023/09/09 10:39:39;;;;;;;0.00;0.00;;;;;;;41.46;31.17;99196.50;5114908;28;20194;-57
2023/09/09 10:42:27;;;;;;;0.00;0.00;;;;;;;41.09;31.96;99202.00;5114793;28;20248;-56
2023/09/09 10:45:24;;;;;;;0.00;0.00;;;;;;;39.72;33.29;99199.41;5114559;28;20299;-56
2023/09/09 10:48:11;;;;;;;0.00;0.00;;;;;;;40.93;32.64;99192.22;5114594;28;20202;-56
2023/09/09 10:51:04;;;;;;;0.00;0.00;;;;;;;39.93;33.88;99188.13;5113360;28;20754;-56
2023/09/09 10:54:06;;;;;;;0.00;0.00;;;;;;;40.25;32.09;99184.84;5114417;28;20280;-56
2023/09/09 10:56:59;;;;;;;0.00;0.00;;;;;;;41.68;31.41;99189.47;5114416;28;20664;-57
2023/09/09 10:59:47;;;;;;;0.00;0.00;;;;;;;40.46;33.23;99182.72;5114382;28;20202;-56
2023/09/09 11:02:46;;;;;;;0.00;0.00;;;;;;;42.94;29.53;99182.00;5114262;28;20235;-56
2023/09/09 11:05:59;;;;;;;0.00;0.00;;;;;;;41.36;31.46;99182.75;5112545;28;20256;-56
2023/09/09 11:08:48;;;;;;;0.00;0.00;;;;;;;42.88;29.33;99188.81;5114500;28;20197;-56
2023/09/09 11:11:37;;;;;;;0.00;0.00;;;;;;;42.39;29.85;99182.75;5114308;28;20197;-57
2023/09/09 11:14:31;;;;;;;0.00;0.00;;;;;;;43.32;28.83;99179.75;5113890;27;20190;-57
2023/09/09 11:17:19;;;;;;;0.00;0.00;;;;;;;44.39;28.10;99177.16;5114034;28;20194;-55
2023/09/09 11:20:10;;;;;;;0.00;0.00;;;;;;;39.97;31.91;99181.72;5112725;28;20194;-55
2023/09/09 11:22:58;;;;;;;0.00;0.00;;;;;;;43.41;28.44;99180.69;5114158;28;20256;-55
2023/09/09 11:25:45;;;;;;;0.00;0.00;;;;;;;44.35;27.37;99181.75;5112948;28;20289;-57
2023/09/09 11:28:32;;;;;;;0.00;0.00;;;;;;;44.38;27.56;99181.94;5114057;28;20239;-58
2023/09/09 11:31:21;;;;;;;0.00;0.00;;;;;;;43.94;27.74;99171.63;5113910;28;20209;-56
2023/09/09 11:34:08;;;;;;;0.00;0.00;;;;;;;45.66;26.18;99173.44;5113773;28;20201;-56
2023/09/09 11:36:55;;;;;;;0.00;0.00;;;;;;;45.16;26.61;99179.44;5112432;28;20193;-57
2023/09/09 11:39:42;;;;;;;0.00;0.00;;;;;;;45.67;26.51;99169.47;5113483;28;20202;-57
2023/09/09 11:42:31;;;;;;;0.00;0.00;;;;;;;45.80;25.47;99176.91;5113538;28;20218;-57
2023/09/09 11:45:19;;;;;;;0.00;0.00;;;;;;;44.98;26.77;99175.81;5113788;28;20207;-58
2023/09/09 11:48:13;;;;;;;0.00;0.00;;;;;;;45.66;25.80;99170.63;5113698;28;20193;-56
2023/09/09 11:51:01;;;;;;;0.00;0.00;;;;;;;46.87;25.14;99169.53;5112295;28;20317;-57
2023/09/09 11:53:48;;;;;;;0.00;0.00;;;;;;;46.51;25.06;99162.41;5113657;28;20304;-56
2023/09/09 11:56:36;;;;;;;0.00;0.00;;;;;;;45.66;24.98;99167.84;5113271;28;20213;-57
2023/09/09 11:59:23;;;;;;;0.00;0.00;;;;;;;45.11;25.67;99165.63;5113526;28;20189;-56
2023/09/09 12:02:18;;;;;;;0.00;0.00;;;;;;;44.96;26.38;99158.50;5112440;28;20186;-57
2023/09/09 12:05:07;;;;;;;0.00;0.00;;;;;;;45.33;25.41;99159.09;5111868;28;20225;-57
2023/09/09 12:07:53;;;;;;;0.00;0.00;;;;;;;44.19;27.38;99153.41;5113339;28;20337;-57
2023/09/09 12:10:41;;;;;;;0.00;0.00;;;;;;;47.26;23.77;99157.09;5113416;28;20263;-57
2023/09/09 12:13:28;;;;;;;0.00;0.00;;;;;;;45.85;24.49;99161.91;5113504;28;20231;-56
2023/09/09 12:16:15;;;;;;;0.00;0.00;;;;;;;45.45;24.72;99156.47;5112933;28;20225;-57
2023/09/09 12:19:03;;;;;;;0.00;0.00;;;;;;;46.51;24.23;99154.00;5113239;28;20194;-58
2023/09/09 12:21:53;;;;;;;0.00;0.00;;;;;;;46.67;24.29;99154.28;5110963;28;20193;-57
2023/09/09 12:24:41;;;;;;;0.00;0.00;;;;;;;46.29;25.17;99149.47;5113261;28;20189;-56
2023/09/09 12:27:41;;;;;;;0.00;0.00;;;;;;;46.28;24.69;99145.00;5113256;28;20202;-57
2023/09/09 12:30:32;;;;;;;0.00;0.00;;;;;;;45.19;25.61;99142.44;5113176;28;20193;-56
2023/09/09 12:33:19;;;;;;;0.00;0.00;;;;;;;45.46;25.28;99140.47;5112944;28;20194;-56
2023/09/09 12:36:14;;;;;;;0.00;0.00;;;;;;;46.47;24.41;99136.22;5111419;28;20214;-57
2023/09/09 12:39:03;;;;;;;0.00;0.00;;;;;;;45.71;25.65;99136.06;5115401;28;20224;-57
2023/09/09 12:42:00;;;;;;;0.00;0.00;;;;;;;46.70;23.92;99131.16;5116990;28;20224;-57
2023/09/09 12:44:51;;;;;;;0.00;0.00;;;;;;;46.50;24.69;99127.13;5117030;28;20186;-57
2023/09/09 12:47:38;;;;;;;0.00;0.00;;;;;;;47.50;23.67;99140.38;5116991;28;20200;-57
2023/09/09 12:50:26;;;;;;;0.00;0.00;;;;;;;47.65;23.63;99143.75;5115625;28;20334;-58
2023/09/09 12:53:13;;;;;;;0.00;0.00;;;;;;;46.79;24.07;99141.16;5117038;28;20202;-57
2023/09/09 12:56:01;;;;;;;0.00;0.00;;;;;;;46.45;23.94;99138.56;5116644;28;20270;-57
2023/09/09 12:58:50;;;;;;;0.00;0.00;;;;;;;46.52;24.03;99132.41;5116759;28;20186;-57
2023/09/09 13:01:37;;;;;;;0.00;0.00;;;;;;;47.22;23.54;99134.50;5116601;28;20198;-57
2023/09/09 13:04:24;;;;;;;0.00;0.00;;;;;;;45.80;24.47;99134.91;5116599;28;20202;-57